createdAt,value
2022-10-13T00:00:10.968Z,26.1
2022-10-13T00:01:13.802Z,26.1
2022-10-13T00:02:17.858Z,26.1
2022-10-13T00:03:21.040Z,26.1
2022-10-13T00:04:23.287Z,26.1
2022-10-13T00:05:25.780Z,26.1
2022-10-13T00:06:27.976Z,26.1
2022-10-13T00:07:30.459Z,26.1
2022-10-13T00:08:32.930Z,26.1
2022-10-13T00:09:35.127Z,26.1
2022-10-13T00:10:37.598Z,26.1
2022-10-13T00:11:39.788Z,26.1
2022-10-13T00:12:42.266Z,26.1
2022-10-13T00:13:44.186Z,26.1
2022-10-13T00:14:46.393Z,26.1
2022-10-13T00:15:48.901Z,26.1
2022-10-13T00:16:51.144Z,26.2
2022-10-13T00:17:53.606Z,26.2
2022-10-13T00:18:55.811Z,26.2
2022-10-13T00:19:58.337Z,26.2
2022-10-13T00:21:00.594Z,26.2
2022-10-13T00:22:03.057Z,26.2
2022-10-13T00:23:05.536Z,26.2
2022-10-13T00:24:08.010Z,26.2
2022-10-13T00:25:10.206Z,26.2
2022-10-13T00:26:12.411Z,26.2
2022-10-13T00:27:14.888Z,26.2
2022-10-13T00:28:17.260Z,26.2
2022-10-13T00:29:19.899Z,26.2
2022-10-13T00:30:22.075Z,26.2
2022-10-13T00:31:24.292Z,26.2
2022-10-13T00:32:26.793Z,26.2
2022-10-13T00:33:29.258Z,26.2
2022-10-13T00:34:31.482Z,26.2
2022-10-13T00:35:33.417Z,26.2
2022-10-13T00:36:36.064Z,26.2
2022-10-13T00:37:38.257Z,26.2
2022-10-13T00:38:40.727Z,26.2
2022-10-13T00:39:42.942Z,26.2
2022-10-13T00:40:45.458Z,26.3
2022-10-13T00:41:47.936Z,26.3
2022-10-13T00:42:50.427Z,26.3
2022-10-13T00:43:52.625Z,26.3
2022-10-13T00:44:54.546Z,26.3
2022-10-13T00:45:56.739Z,26.3
2022-10-13T00:46:59.218Z,26.3
2022-10-13T00:48:01.743Z,26.3
2022-10-13T00:49:03.921Z,26.3
2022-10-13T00:50:06.098Z,26.3
2022-10-13T00:51:08.331Z,26.3
2022-10-13T00:52:10.833Z,26.3
2022-10-13T00:53:13.327Z,26.3
2022-10-13T00:54:15.539Z,26.3
2022-10-13T00:55:18.015Z,26.3
2022-10-13T00:56:20.207Z,26.3
2022-10-13T00:57:22.123Z,26.3
2022-10-13T00:58:24.328Z,26.3
2022-10-13T00:59:26.553Z,26.3
2022-10-13T01:00:28.622Z,26.3
2022-10-13T01:01:30.704Z,26.3
2022-10-13T01:02:32.331Z,26.3
2022-10-13T01:03:34.873Z,26.3
2022-10-13T01:04:37.342Z,26.3
2022-10-13T01:05:39.817Z,26.3
2022-10-13T01:06:41.761Z,26.3
2022-10-13T01:07:43.987Z,26.3
2022-10-13T01:08:46.162Z,26.3
2022-10-13T01:09:48.641Z,26.3
2022-10-13T01:10:51.117Z,26.3
2022-10-13T01:11:53.595Z,26.3
2022-10-13T01:12:55.795Z,26.3
2022-10-13T01:13:58.269Z,26.3
2022-10-13T01:15:00.470Z,26.3
2022-10-13T01:16:02.664Z,26.3
2022-10-13T01:17:05.133Z,26.3
2022-10-13T01:18:07.607Z,26.3
2022-10-13T01:19:09.847Z,26.3
2022-10-13T01:20:12.332Z,26.3
2022-10-13T01:21:14.798Z,26.3
2022-10-13T01:22:18.560Z,26.3
2022-10-13T01:23:22.453Z,26.3
2022-10-13T01:24:24.667Z,26.3
2022-10-13T01:25:26.867Z,26.3
2022-10-13T01:26:29.337Z,26.3
2022-10-13T01:27:31.535Z,26.4
2022-10-13T01:28:34.178Z,26.3
2022-10-13T01:29:36.494Z,26.3
2022-10-13T01:30:38.965Z,26.4
2022-10-13T01:31:41.440Z,26.3
2022-10-13T01:32:43.628Z,26.4
2022-10-13T01:33:45.984Z,26.4
2022-10-13T01:34:48.223Z,26.4
2022-10-13T01:35:50.412Z,26.3
2022-10-13T01:36:52.597Z,26.4
2022-10-13T01:37:55.133Z,26.4
2022-10-13T01:38:57.680Z,26.4
2022-10-13T01:40:00.169Z,26.3
2022-10-13T01:41:02.647Z,26.4
2022-10-13T01:42:05.118Z,26.3
2022-10-13T01:43:07.584Z,26.4
2022-10-13T01:44:09.523Z,26.4
2022-10-13T01:45:11.724Z,26.4
2022-10-13T01:46:13.930Z,26.4
2022-10-13T01:47:16.126Z,26.4
2022-10-13T01:48:18.634Z,26.4
2022-10-13T01:49:20.826Z,26.4
2022-10-13T01:50:23.060Z,26.4
2022-10-13T01:51:25.512Z,26.4
2022-10-13T01:52:27.986Z,26.4
2022-10-13T01:53:30.471Z,26.4
2022-10-13T01:54:32.962Z,26.4
2022-10-13T01:55:35.435Z,26.4
2022-10-13T01:56:37.334Z,26.4
2022-10-13T01:57:39.519Z,26.4
2022-10-13T01:58:41.432Z,26.4
2022-10-13T01:59:43.606Z,26.4
2022-10-13T02:00:46.239Z,26.4
2022-10-13T02:01:48.305Z,26.4
2022-10-13T02:02:50.500Z,26.4
2022-10-13T02:03:52.969Z,26.4
2022-10-13T02:04:55.189Z,26.4
2022-10-13T02:05:57.703Z,26.4
2022-10-13T02:06:59.901Z,26.4
2022-10-13T02:08:02.376Z,26.4
2022-10-13T02:09:04.584Z,26.4
2022-10-13T02:10:07.090Z,26.4
2022-10-13T02:11:09.573Z,26.4
2022-10-13T02:12:11.772Z,26.4
2022-10-13T02:13:14.246Z,26.4
2022-10-13T02:14:16.444Z,26.4
2022-10-13T02:15:18.363Z,26.4
2022-10-13T02:16:20.569Z,26.4
2022-10-13T02:17:22.464Z,26.4
2022-10-13T02:18:24.947Z,26.4
2022-10-13T02:19:27.419Z,26.4
2022-10-13T02:20:29.895Z,26.4
2022-10-13T02:21:32.392Z,26.4
2022-10-13T02:22:34.591Z,26.4
2022-10-13T02:23:36.785Z,26.4
2022-10-13T02:24:39.391Z,26.4
2022-10-13T02:25:41.882Z,26.4
2022-10-13T02:26:43.786Z,26.4
2022-10-13T02:27:45.987Z,26.4
2022-10-13T02:28:48.628Z,26.4
2022-10-13T02:29:50.628Z,26.4
2022-10-13T02:30:52.820Z,26.4
2022-10-13T02:31:55.364Z,26.4
2022-10-13T02:32:57.265Z,26.4
2022-10-13T02:33:59.472Z,26.4
2022-10-13T02:35:01.963Z,26.4
2022-10-13T02:36:04.438Z,26.4
2022-10-13T02:37:06.687Z,26.4
2022-10-13T02:38:09.378Z,26.4
2022-10-13T02:39:11.581Z,26.4
2022-10-13T02:40:14.078Z,26.4
2022-10-13T02:41:16.299Z,26.4
2022-10-13T02:42:19.035Z,26.4
2022-10-13T02:43:22.748Z,26.4
2022-10-13T02:44:25.211Z,26.4
2022-10-13T02:45:27.402Z,26.4
2022-10-13T02:46:29.872Z,26.4
2022-10-13T02:47:32.358Z,26.4
2022-10-13T02:48:34.555Z,26.4
2022-10-13T02:49:36.866Z,26.4
2022-10-13T02:50:39.062Z,26.4
2022-10-13T02:51:41.443Z,26.4
2022-10-13T02:52:43.955Z,26.4
2022-10-13T02:53:46.163Z,26.4
2022-10-13T02:54:48.635Z,26.4
2022-10-13T02:55:51.129Z,26.4
2022-10-13T02:56:53.629Z,26.4
2022-10-13T02:57:55.827Z,26.4
2022-10-13T02:58:57.722Z,26.4
2022-10-13T02:59:59.351Z,26.4
2022-10-13T03:01:02.072Z,26.4
2022-10-13T03:02:04.391Z,26.4
2022-10-13T03:03:06.590Z,26.4
2022-10-13T03:04:09.085Z,26.4
2022-10-13T03:05:11.274Z,26.4
2022-10-13T03:06:13.201Z,26.4
2022-10-13T03:07:15.387Z,26.3
2022-10-13T03:08:17.909Z,26.3
2022-10-13T03:09:20.374Z,26.3
2022-10-13T03:10:22.574Z,26.3
2022-10-13T03:11:24.789Z,26.3
2022-10-13T03:12:27.567Z,26.2
2022-10-13T03:13:29.484Z,26.2
2022-10-13T03:14:31.724Z,26.2
2022-10-13T03:15:33.924Z,26.2
2022-10-13T03:16:36.116Z,26.2
2022-10-13T03:17:38.592Z,26.2
2022-10-13T03:18:41.063Z,26.2
2022-10-13T03:19:43.001Z,26.1
2022-10-13T03:20:45.210Z,26.1
2022-10-13T03:21:47.445Z,26.1
2022-10-13T03:22:50.876Z,26.1
2022-10-13T03:23:53.116Z,26.1
2022-10-13T03:24:55.335Z,26.1
2022-10-13T03:25:57.824Z,26.1
2022-10-13T03:27:00.051Z,26.1
2022-10-13T03:28:02.945Z,26
2022-10-13T03:29:05.505Z,26
2022-10-13T03:30:07.404Z,26
2022-10-13T03:31:09.318Z,26
2022-10-13T03:32:11.811Z,26
2022-10-13T03:33:14.278Z,26
2022-10-13T03:34:16.760Z,26
2022-10-13T03:35:19.241Z,26
2022-10-13T03:36:20.870Z,26
2022-10-13T03:37:23.058Z,26
2022-10-13T03:38:25.385Z,26
2022-10-13T03:39:27.832Z,26
2022-10-13T03:40:30.354Z,26
2022-10-13T03:41:32.825Z,26
2022-10-13T03:42:35.314Z,26
2022-10-13T03:43:37.563Z,26
2022-10-13T03:44:39.762Z,26
2022-10-13T03:45:42.224Z,26
2022-10-13T03:46:44.395Z,26
2022-10-13T03:47:46.586Z,26
2022-10-13T03:48:49.075Z,25.9
2022-10-13T03:49:51.546Z,26
2022-10-13T03:50:53.742Z,26
2022-10-13T03:51:56.222Z,25.9
2022-10-13T03:52:58.400Z,25.9
2022-10-13T03:54:00.591Z,25.9
2022-10-13T03:55:03.132Z,25.9
2022-10-13T03:56:05.031Z,25.9
2022-10-13T03:57:06.959Z,25.9
2022-10-13T03:58:09.171Z,25.9
2022-10-13T03:59:11.717Z,25.9
2022-10-13T04:00:13.913Z,25.9
2022-10-13T04:01:16.388Z,25.9
2022-10-13T04:02:19.788Z,25.9
2022-10-13T04:03:23.441Z,25.9
2022-10-13T04:04:25.389Z,25.9
2022-10-13T04:05:27.580Z,25.9
2022-10-13T04:06:30.049Z,25.9
2022-10-13T04:07:32.251Z,25.9
2022-10-13T04:08:34.730Z,25.9
2022-10-13T04:09:36.646Z,25.9
2022-10-13T04:10:39.154Z,25.9
2022-10-13T04:11:41.355Z,25.9
2022-10-13T04:12:43.827Z,25.9
2022-10-13T04:13:46.026Z,25.9
2022-10-13T04:14:48.628Z,25.9
2022-10-13T04:15:50.832Z,25.9
2022-10-13T04:16:53.309Z,25.9
2022-10-13T04:17:55.783Z,25.9
2022-10-13T04:18:58.251Z,25.9
2022-10-13T04:20:00.181Z,25.9
2022-10-13T04:21:02.370Z,25.8
2022-10-13T04:22:04.564Z,25.8
2022-10-13T04:23:07.038Z,25.9
2022-10-13T04:24:09.221Z,25.8
2022-10-13T04:25:11.412Z,25.9
2022-10-13T04:26:13.646Z,25.8
2022-10-13T04:27:15.842Z,25.8
2022-10-13T04:28:18.515Z,25.8
2022-10-13T04:29:21.164Z,25.8
2022-10-13T04:30:23.876Z,25.8
2022-10-13T04:31:26.410Z,25.8
2022-10-13T04:32:28.919Z,25.8
2022-10-13T04:33:31.440Z,25.8
2022-10-13T04:34:33.642Z,25.8
2022-10-13T04:35:35.845Z,25.8
2022-10-13T04:36:38.313Z,25.8
2022-10-13T04:38:45.483Z,25.8
2022-10-13T04:39:47.394Z,25.8
2022-10-13T04:40:49.590Z,25.8
2022-10-13T04:41:51.833Z,25.8
2022-10-13T04:42:54.319Z,25.8
2022-10-13T04:43:56.791Z,25.8
2022-10-13T04:44:59.007Z,25.8
2022-10-13T04:46:01.263Z,25.8
2022-10-13T04:47:03.499Z,25.8
2022-10-13T04:48:05.973Z,25.8
2022-10-13T04:49:08.183Z,25.8
2022-10-13T04:50:10.118Z,25.8
2022-10-13T04:51:12.049Z,25.8
2022-10-13T04:52:14.238Z,25.8
2022-10-13T04:54:21.436Z,25.8
2022-10-13T04:55:23.606Z,25.8
2022-10-13T04:56:25.524Z,25.8
2022-10-13T04:57:27.756Z,25.8
2022-10-13T04:58:29.683Z,25.8
2022-10-13T04:59:31.875Z,25.8
2022-10-13T05:00:34.552Z,25.8
2022-10-13T05:01:36.940Z,25.8
2022-10-13T05:02:39.118Z,25.8
2022-10-13T05:03:41.573Z,25.8
2022-10-13T05:04:44.061Z,25.7
2022-10-13T05:05:46.260Z,25.8
2022-10-13T05:07:53.153Z,25.7
2022-10-13T05:08:55.346Z,25.7
2022-10-13T05:09:57.816Z,25.7
2022-10-13T05:10:59.721Z,25.7
2022-10-13T05:12:02.195Z,25.7
2022-10-13T05:13:04.700Z,25.7
2022-10-13T05:14:07.171Z,25.7
2022-10-13T05:15:09.640Z,25.7
2022-10-13T05:16:11.865Z,25.7
2022-10-13T05:17:14.140Z,25.7
2022-10-13T05:18:16.317Z,25.7
2022-10-13T05:19:18.784Z,25.7
2022-10-13T05:20:20.981Z,25.7
2022-10-13T05:21:23.195Z,25.7
2022-10-13T05:22:24.830Z,25.7
2022-10-13T05:23:27.326Z,25.7
2022-10-13T05:24:29.800Z,25.7
2022-10-13T05:26:36.452Z,25.7
2022-10-13T05:27:38.654Z,25.7
2022-10-13T05:28:41.105Z,25.7
2022-10-13T05:29:43.794Z,25.7
2022-10-13T05:30:46.275Z,25.7
2022-10-13T05:31:48.297Z,25.7
2022-10-13T05:33:55.520Z,25.7
2022-10-13T05:34:58.001Z,25.7
2022-10-13T05:36:00.205Z,25.7
2022-10-13T05:37:02.143Z,25.7
2022-10-13T05:38:04.349Z,25.7
2022-10-13T05:39:06.266Z,25.7
2022-10-13T05:40:07.892Z,25.7
2022-10-13T05:41:09.956Z,25.7
2022-10-13T05:42:12.444Z,25.7
2022-10-13T05:43:14.916Z,25.7
2022-10-13T05:44:17.500Z,25.7
2022-10-13T05:45:19.743Z,25.7
2022-10-13T05:46:21.970Z,25.7
2022-10-13T05:47:24.220Z,25.7
2022-10-13T05:48:26.176Z,25.7
2022-10-13T05:49:28.111Z,25.7
2022-10-13T05:50:30.338Z,25.7
2022-10-13T05:51:32.519Z,25.7
2022-10-13T05:52:34.988Z,25.7
2022-10-13T05:53:36.887Z,25.7
2022-10-13T05:54:39.391Z,25.7
2022-10-13T05:55:41.571Z,25.7
2022-10-13T05:56:43.524Z,25.7
2022-10-13T05:57:45.987Z,25.7
2022-10-13T05:58:48.219Z,25.7
2022-10-13T05:59:50.929Z,25.7
2022-10-13T06:00:52.878Z,25.7
2022-10-13T06:01:55.336Z,25.7
2022-10-13T06:02:58.007Z,25.7
2022-10-13T06:04:00.514Z,25.7
2022-10-13T06:05:02.723Z,25.7
2022-10-13T06:06:05.206Z,25.7
2022-10-13T06:07:07.136Z,25.7
2022-10-13T06:08:09.329Z,25.7
2022-10-13T06:09:11.503Z,25.7
2022-10-13T06:10:13.690Z,25.7
2022-10-13T06:11:16.168Z,25.7
2022-10-13T06:12:19.805Z,25.7
2022-10-13T06:13:23.317Z,25.7
2022-10-13T06:14:25.794Z,25.7
2022-10-13T06:15:29.515Z,25.7
2022-10-13T06:16:31.720Z,25.7
2022-10-13T06:17:33.913Z,25.7
2022-10-13T06:18:36.131Z,25.7
2022-10-13T06:19:38.647Z,25.6
2022-10-13T06:20:41.114Z,25.7
2022-10-13T06:21:43.591Z,25.7
2022-10-13T06:22:45.757Z,25.7
2022-10-13T06:23:48.231Z,25.7
2022-10-13T06:24:50.694Z,25.7
2022-10-13T06:25:52.903Z,25.7
2022-10-13T06:26:55.101Z,25.7
2022-10-13T06:27:57.301Z,25.7
2022-10-13T06:29:01.137Z,25.7
2022-10-13T06:30:03.230Z,25.6
2022-10-13T06:31:05.449Z,25.7
2022-10-13T06:32:08.065Z,25.7
2022-10-13T06:33:09.991Z,25.6
2022-10-13T06:34:12.192Z,25.6
2022-10-13T06:35:14.737Z,25.6
2022-10-13T06:36:17.224Z,25.6
2022-10-13T06:38:24.683Z,25.6
2022-10-13T06:39:26.876Z,25.6
2022-10-13T06:40:29.078Z,25.6
2022-10-13T06:41:31.336Z,25.6
2022-10-13T06:42:35.347Z,25.6
2022-10-13T06:44:42.589Z,25.6
2022-10-13T06:45:45.265Z,25.6
2022-10-13T06:46:47.975Z,25.6
2022-10-13T06:47:49.898Z,25.6
2022-10-13T06:48:52.102Z,25.6
2022-10-13T06:49:54.058Z,25.6
2022-10-13T06:50:56.576Z,25.6
2022-10-13T06:51:58.489Z,25.6
2022-10-13T06:53:00.693Z,25.6
2022-10-13T06:54:02.887Z,25.6
2022-10-13T06:55:05.109Z,25.6
2022-10-13T06:56:07.591Z,25.6
2022-10-13T06:57:09.499Z,25.6
2022-10-13T06:58:11.707Z,25.6
2022-10-13T06:59:13.363Z,25.6
2022-10-13T07:00:15.858Z,25.6
2022-10-13T07:01:18.335Z,25.6
2022-10-13T07:02:22.327Z,25.6
2022-10-13T07:03:24.972Z,25.6
2022-10-13T07:04:27.453Z,25.6
2022-10-13T07:05:29.987Z,25.6
2022-10-13T07:06:32.494Z,25.6
2022-10-13T07:07:34.981Z,25.6
2022-10-13T07:08:37.445Z,25.6
2022-10-13T07:09:39.922Z,25.6
2022-10-13T07:10:42.457Z,25.6
2022-10-13T07:11:44.658Z,25.6
2022-10-13T07:12:47.129Z,25.6
2022-10-13T07:13:49.767Z,25.6
2022-10-13T07:14:51.827Z,25.6
2022-10-13T07:15:54.043Z,25.6
2022-10-13T07:16:56.249Z,25.6
2022-10-13T07:17:58.492Z,25.6
2022-10-13T07:19:00.974Z,25.6
2022-10-13T07:21:08.489Z,25.6
2022-10-13T07:22:11.012Z,25.6
2022-10-13T07:23:13.515Z,25.6
2022-10-13T07:24:16.108Z,25.6
2022-10-13T07:25:18.018Z,25.6
2022-10-13T07:26:19.998Z,25.6
2022-10-13T07:27:23.505Z,25.6
2022-10-13T07:28:27.101Z,25.6
2022-10-13T07:29:29.193Z,25.6
2022-10-13T07:30:31.673Z,25.6
2022-10-13T07:31:34.155Z,25.6
2022-10-13T07:32:36.642Z,25.6
2022-10-13T07:33:38.860Z,25.6
2022-10-13T07:34:41.080Z,25.6
2022-10-13T07:35:43.563Z,25.6
2022-10-13T07:36:45.767Z,25.6
2022-10-13T07:37:48.299Z,25.6
2022-10-13T07:38:50.774Z,25.6
2022-10-13T07:39:53.251Z,25.6
2022-10-13T07:40:55.464Z,25.6
2022-10-13T07:41:57.680Z,25.6
2022-10-13T07:43:00.239Z,25.6
2022-10-13T07:44:02.776Z,25.6
2022-10-13T07:45:04.972Z,25.6
2022-10-13T07:46:07.459Z,25.6
2022-10-13T07:47:09.663Z,25.6
2022-10-13T07:48:12.269Z,25.6
2022-10-13T07:50:19.527Z,25.6
2022-10-13T07:51:22.316Z,25.6
2022-10-13T07:52:24.451Z,25.6
2022-10-13T07:53:27.020Z,25.6
2022-10-13T07:54:29.489Z,25.6
2022-10-13T07:55:31.695Z,25.6
2022-10-13T07:56:34.178Z,25.6
2022-10-13T07:57:36.378Z,25.6
2022-10-13T07:58:38.575Z,25.6
2022-10-13T07:59:41.047Z,25.6
2022-10-13T08:00:42.692Z,25.6
2022-10-13T08:01:45.321Z,25.6
2022-10-13T08:02:47.365Z,25.6
2022-10-13T08:03:51.438Z,25.6
2022-10-13T08:04:53.676Z,25.6
2022-10-13T08:05:55.996Z,25.6
2022-10-13T08:06:58.200Z,25.6
2022-10-13T08:08:00.702Z,25.6
2022-10-13T08:09:03.323Z,25.6
2022-10-13T08:10:05.812Z,25.6
2022-10-13T08:11:08.043Z,25.6
2022-10-13T08:12:09.961Z,25.6
2022-10-13T08:13:11.925Z,25.6
2022-10-13T08:14:14.140Z,25.6
2022-10-13T08:15:16.631Z,25.6
2022-10-13T08:16:18.852Z,25.6
2022-10-13T08:17:22.311Z,25.6
2022-10-13T08:18:25.122Z,25.6
2022-10-13T08:19:27.683Z,25.6
2022-10-13T08:22:40.189Z,25.6
2022-10-13T08:23:42.143Z,25.6
2022-10-13T08:24:44.497Z,25.6
2022-10-13T08:25:46.449Z,25.6
2022-10-13T08:26:48.924Z,25.6
2022-10-13T08:30:03.086Z,25.6
2022-10-13T08:31:05.449Z,25.6
2022-10-13T08:32:08.384Z,25.6
2022-10-13T08:33:10.557Z,25.6
2022-10-13T08:34:12.763Z,25.6
2022-10-13T08:35:14.700Z,25.6
2022-10-13T08:36:17.209Z,25.6
2022-10-13T08:37:19.142Z,25.6
2022-10-13T08:38:21.640Z,25.6
2022-10-13T08:39:23.864Z,25.6
2022-10-13T08:40:26.279Z,25.6
2022-10-13T08:41:28.767Z,25.6
2022-10-13T08:42:31.262Z,25.6
2022-10-13T08:43:33.767Z,25.6
2022-10-13T08:45:43.134Z,25.5
2022-10-13T08:46:45.371Z,25.5
2022-10-13T08:47:47.844Z,25.5
2022-10-13T08:48:50.314Z,25.5
2022-10-13T08:50:57.788Z,25.5
2022-10-13T08:52:00.004Z,25.5
2022-10-13T08:53:02.497Z,25.5
2022-10-13T08:54:04.719Z,25.5
2022-10-13T08:55:06.997Z,25.5
2022-10-13T08:56:09.498Z,25.5
2022-10-13T08:57:12.086Z,25.5
2022-10-13T08:58:14.009Z,25.5
2022-10-13T08:59:15.942Z,25.5
2022-10-13T09:00:18.146Z,25.5
2022-10-13T09:01:20.817Z,25.5
2022-10-13T09:02:23.145Z,25.5
2022-10-13T09:03:25.642Z,25.5
2022-10-13T09:04:27.840Z,25.5
2022-10-13T09:05:30.319Z,25.5
2022-10-13T09:06:32.789Z,25.5
2022-10-13T09:07:34.804Z,25.5
2022-10-13T09:08:37.275Z,25.5
2022-10-13T09:09:39.808Z,25.5
2022-10-13T09:10:41.743Z,25.5
2022-10-13T09:11:44.347Z,25.5
2022-10-13T09:12:46.830Z,25.5
2022-10-13T09:13:48.761Z,25.5
2022-10-13T09:14:50.967Z,25.5
2022-10-13T09:15:53.443Z,25.5
2022-10-13T09:16:55.626Z,25.5
2022-10-13T09:17:58.096Z,25.5
2022-10-13T09:19:00.286Z,25.5
2022-10-13T09:20:02.587Z,25.5
2022-10-13T09:21:04.555Z,25.5
2022-10-13T09:22:07.052Z,25.5
2022-10-13T09:23:09.290Z,25.5
2022-10-13T09:24:11.216Z,25.5
2022-10-13T09:25:13.724Z,25.5
2022-10-13T09:26:16.039Z,25.5
2022-10-13T09:27:18.608Z,25.5
2022-10-13T09:28:21.273Z,25.5
2022-10-13T09:29:23.743Z,25.5
2022-10-13T09:30:26.230Z,25.5
2022-10-13T09:31:28.492Z,25.5
2022-10-13T09:32:30.707Z,25.5
2022-10-13T09:33:33.223Z,25.5
2022-10-13T09:34:35.424Z,25.5
2022-10-13T09:35:37.065Z,25.5
2022-10-13T09:36:39.294Z,25.5
2022-10-13T09:37:41.773Z,25.5
2022-10-13T09:38:44.121Z,25.5
2022-10-13T09:39:46.645Z,25.5
2022-10-13T09:40:48.615Z,25.5
2022-10-13T09:41:50.833Z,25.5
2022-10-13T09:42:53.353Z,25.5
2022-10-13T09:43:55.843Z,25.5
2022-10-13T09:44:58.347Z,25.5
2022-10-13T09:46:00.847Z,25.5
2022-10-13T09:47:03.052Z,25.5
2022-10-13T09:48:05.566Z,25.5
2022-10-13T09:49:07.517Z,25.5
2022-10-13T09:50:09.416Z,25.5
2022-10-13T09:51:11.899Z,25.5
2022-10-13T09:52:14.379Z,25.5
2022-10-13T09:53:16.882Z,25.5
2022-10-13T09:54:19.088Z,25.5
2022-10-13T09:55:21.001Z,25.5
2022-10-13T09:56:23.248Z,25.5
2022-10-13T09:57:25.488Z,25.5
2022-10-13T09:58:28.010Z,25.5
2022-10-13T09:59:30.196Z,25.5
2022-10-13T10:00:32.689Z,25.5
2022-10-13T10:01:34.619Z,25.5
2022-10-13T10:02:37.343Z,25.5
2022-10-13T10:03:40.029Z,25.5
2022-10-13T10:04:42.634Z,25.5
2022-10-13T10:05:45.129Z,25.5
2022-10-13T10:06:47.632Z,25.5
2022-10-13T10:07:49.825Z,25.5
2022-10-13T10:09:57.090Z,25.5
2022-10-13T10:10:59.295Z,25.5
2022-10-13T10:12:01.543Z,25.5
2022-10-13T10:13:03.774Z,25.5
2022-10-13T10:14:06.004Z,25.5
2022-10-13T10:15:08.466Z,25.5
2022-10-13T10:16:10.671Z,25.5
2022-10-13T10:17:12.908Z,25.5
2022-10-13T10:18:15.164Z,25.5
2022-10-13T10:19:17.125Z,25.5
2022-10-13T10:20:19.344Z,25.5
2022-10-13T10:21:21.585Z,25.5
2022-10-13T10:22:23.946Z,25.5
2022-10-13T10:23:26.420Z,25.5
2022-10-13T10:24:28.348Z,25.5
2022-10-13T10:25:30.963Z,25.5
2022-10-13T10:26:33.949Z,25.5
2022-10-13T10:28:41.703Z,25.5
2022-10-13T10:29:44.227Z,25.5
2022-10-13T10:30:46.438Z,25.5
2022-10-13T10:31:48.350Z,25.5
2022-10-13T10:32:50.291Z,25.5
2022-10-13T10:33:52.759Z,25.5
2022-10-13T10:34:54.988Z,25.5
2022-10-13T10:35:57.501Z,25.5
2022-10-13T10:36:59.984Z,25.5
2022-10-13T10:38:01.939Z,25.5
2022-10-13T10:39:04.475Z,25.5
2022-10-13T10:40:06.377Z,25.5
2022-10-13T10:41:09.020Z,25.5
2022-10-13T10:42:11.247Z,25.5
2022-10-13T10:43:12.624Z,25.5
2022-10-13T10:44:14.867Z,25.5
2022-10-13T10:45:17.471Z,25.5
2022-10-13T10:46:19.959Z,25.5
2022-10-13T10:48:26.881Z,25.5
2022-10-13T10:49:29.373Z,25.5
2022-10-13T10:50:31.289Z,25.5
2022-10-13T10:51:33.746Z,25.5
2022-10-13T10:52:35.675Z,25.5
2022-10-13T10:53:37.880Z,25.5
2022-10-13T10:54:39.830Z,25.5
2022-10-13T10:55:46.286Z,25.5
2022-10-13T10:56:48.767Z,25.5
2022-10-13T10:57:50.694Z,25.5
2022-10-13T10:58:53.161Z,25.5
2022-10-13T10:59:55.439Z,25.5
2022-10-13T11:00:57.953Z,25.5
2022-10-13T11:01:59.608Z,25.5
2022-10-13T11:03:02.106Z,25.5
2022-10-13T11:04:04.590Z,25.5
2022-10-13T11:05:07.413Z,25.5
2022-10-13T11:06:09.050Z,25.5
2022-10-13T11:07:11.276Z,25.5
2022-10-13T11:08:12.644Z,25.5
2022-10-13T11:09:15.121Z,25.5
2022-10-13T11:10:17.665Z,25.5
2022-10-13T11:12:25.156Z,25.5
2022-10-13T11:13:27.667Z,25.5
2022-10-13T11:14:30.172Z,25.5
2022-10-13T11:15:31.881Z,25.5
2022-10-13T11:16:34.314Z,25.5
2022-10-13T11:17:36.227Z,25.5
2022-10-13T11:18:38.429Z,25.5
2022-10-13T11:19:40.649Z,25.5
2022-10-13T11:20:43.141Z,25.5
2022-10-13T11:21:45.331Z,25.5
2022-10-13T11:22:46.708Z,25.5
2022-10-13T11:23:49.207Z,25.5
2022-10-13T11:24:51.442Z,25.5
2022-10-13T11:25:53.926Z,25.5
2022-10-13T11:26:56.414Z,25.5
2022-10-13T11:27:58.930Z,25.5
2022-10-13T11:29:01.139Z,25.5
2022-10-13T11:30:03.321Z,25.5
2022-10-13T11:31:05.309Z,25.5
2022-10-13T11:32:07.872Z,25.5
2022-10-13T11:33:09.783Z,25.5
2022-10-13T11:34:12.001Z,25.5
2022-10-13T11:35:13.927Z,25.5
2022-10-13T11:36:16.408Z,25.5
2022-10-13T11:37:18.603Z,25.5
2022-10-13T11:38:20.237Z,25.5
2022-10-13T11:39:22.885Z,25.5
2022-10-13T11:40:25.267Z,25.5
2022-10-13T11:41:27.468Z,25.5
2022-10-13T11:42:29.372Z,25.5
2022-10-13T11:43:31.876Z,25.5
2022-10-13T11:44:34.346Z,25.5
2022-10-13T11:45:36.840Z,25.5
2022-10-13T11:46:39.193Z,25.5
2022-10-13T11:47:41.818Z,25.5
2022-10-13T11:48:44.024Z,25.5
2022-10-13T11:49:46.527Z,25.5
2022-10-13T11:50:49.002Z,25.5
2022-10-13T11:51:51.211Z,25.5
2022-10-13T11:52:53.688Z,25.5
2022-10-13T11:53:55.606Z,25.5
2022-10-13T11:54:57.705Z,25.5
2022-10-13T11:56:00.199Z,25.5
2022-10-13T11:57:02.119Z,25.5
2022-10-13T11:58:04.058Z,25.5
2022-10-13T11:59:06.327Z,25.5
2022-10-13T12:00:08.805Z,25.5
2022-10-13T12:01:11.283Z,25.5
2022-10-13T12:02:14.530Z,25.5
2022-10-13T12:03:19.379Z,25.5
2022-10-13T12:04:21.927Z,25.5
2022-10-13T12:05:24.414Z,25.5
2022-10-13T12:06:26.614Z,25.5
2022-10-13T12:07:28.814Z,25.5
2022-10-13T12:08:31.031Z,25.5
2022-10-13T12:09:33.512Z,25.5
2022-10-13T12:10:35.438Z,25.5
2022-10-13T12:11:37.363Z,25.5
2022-10-13T12:12:39.542Z,25.5
2022-10-13T12:13:42.060Z,25.5
2022-10-13T12:14:44.599Z,25.5
2022-10-13T12:15:46.808Z,25.5
2022-10-13T12:16:49.125Z,25.5
2022-10-13T12:17:51.811Z,25.5
2022-10-13T12:18:54.287Z,25.5
2022-10-13T12:19:56.549Z,25.5
2022-10-13T12:20:58.487Z,25.5
2022-10-13T12:22:00.966Z,25.5
2022-10-13T12:23:02.876Z,25.5
2022-10-13T12:24:04.782Z,25.5
2022-10-13T12:25:07.259Z,25.5
2022-10-13T12:26:09.743Z,25.5
2022-10-13T12:27:12.207Z,25.5
2022-10-13T12:28:14.892Z,25.5
2022-10-13T12:29:17.514Z,25.5
2022-10-13T12:30:20.026Z,25.5
2022-10-13T12:31:22.527Z,25.5
2022-10-13T12:32:24.743Z,25.5
2022-10-13T12:33:26.432Z,25.5
2022-10-13T12:34:28.911Z,25.5
2022-10-13T12:35:31.438Z,25.5
2022-10-13T12:36:33.668Z,25.5
2022-10-13T12:37:36.167Z,25.5
2022-10-13T12:38:38.375Z,25.5
2022-10-13T12:39:40.856Z,25.5
2022-10-13T12:40:43.348Z,25.5
2022-10-13T12:41:45.612Z,25.5
2022-10-13T12:42:48.143Z,25.5
2022-10-13T12:43:50.769Z,25.5
2022-10-13T12:44:53.023Z,25.5
2022-10-13T12:45:55.587Z,25.5
2022-10-13T12:46:58.067Z,25.5
2022-10-13T12:48:00.050Z,25.5
2022-10-13T12:49:02.067Z,25.5
2022-10-13T12:50:04.625Z,25.5
2022-10-13T12:51:07.620Z,25.5
2022-10-13T12:52:09.830Z,25.5
2022-10-13T12:53:12.088Z,25.5
2022-10-13T12:54:14.580Z,25.5
2022-10-13T12:55:16.769Z,25.5
2022-10-13T12:56:18.987Z,25.5
2022-10-13T12:57:21.463Z,25.5
2022-10-13T12:58:23.703Z,25.5
2022-10-13T12:59:25.936Z,25.5
2022-10-13T13:00:28.488Z,25.5
2022-10-13T13:01:31.006Z,25.5
2022-10-13T13:02:33.813Z,25.5
2022-10-13T13:03:36.369Z,25.5
2022-10-13T13:04:38.909Z,25.5
2022-10-13T13:05:41.161Z,25.5
2022-10-13T13:06:43.445Z,25.5
2022-10-13T13:07:45.942Z,25.5
2022-10-13T13:08:48.442Z,25.5
2022-10-13T13:09:50.648Z,25.5
2022-10-13T13:10:52.863Z,25.5
2022-10-13T13:11:55.041Z,25.5
2022-10-13T13:12:57.221Z,25.5
2022-10-13T13:13:59.449Z,25.5
2022-10-13T13:15:01.350Z,25.5
2022-10-13T13:16:03.827Z,25.5
2022-10-13T13:17:06.441Z,25.5
2022-10-13T13:18:08.930Z,25.5
2022-10-13T13:19:11.420Z,25.5
2022-10-13T13:20:13.971Z,25.5
2022-10-13T13:21:16.452Z,25.5
2022-10-13T13:22:20.235Z,25.5
2022-10-13T13:23:23.564Z,25.5
2022-10-13T13:25:30.756Z,25.5
2022-10-13T13:26:32.966Z,25.6
2022-10-13T13:27:35.196Z,25.5
2022-10-13T13:28:37.890Z,25.5
2022-10-13T13:29:40.505Z,25.5
2022-10-13T13:30:42.445Z,25.5
2022-10-13T13:31:44.386Z,25.5
2022-10-13T13:32:47.097Z,25.5
2022-10-13T13:33:49.662Z,25.5
2022-10-13T13:34:51.938Z,25.5
2022-10-13T13:35:54.268Z,25.5
2022-10-13T13:36:56.757Z,25.5
2022-10-13T13:37:59.036Z,25.5
2022-10-13T13:39:01.243Z,25.5
2022-10-13T13:40:03.666Z,25.5
2022-10-13T13:41:06.206Z,25.5
2022-10-13T13:42:08.420Z,25.5
2022-10-13T13:43:10.619Z,25.5
2022-10-13T13:44:13.097Z,25.5
2022-10-13T13:45:15.573Z,25.5
2022-10-13T13:46:18.059Z,25.5
2022-10-13T13:47:21.496Z,25.5
2022-10-13T13:48:24.951Z,25.5
2022-10-13T13:49:27.168Z,25.6
2022-10-13T13:50:29.168Z,25.6
2022-10-13T13:51:31.791Z,25.6
2022-10-13T13:52:34.298Z,25.6
2022-10-13T13:53:36.298Z,25.6
2022-10-13T13:54:38.510Z,25.6
2022-10-13T13:55:40.705Z,25.6
2022-10-13T13:56:42.954Z,25.5
2022-10-13T13:57:44.883Z,25.6
2022-10-13T13:58:47.386Z,25.5
2022-10-13T13:59:49.912Z,25.5
2022-10-13T14:00:51.562Z,25.5
2022-10-13T14:01:54.499Z,25.5
2022-10-13T14:02:57.017Z,25.5
2022-10-13T14:03:59.215Z,25.5
2022-10-13T14:05:01.701Z,25.5
2022-10-13T14:06:04.183Z,25.5
2022-10-13T14:07:06.431Z,25.6
2022-10-13T14:08:08.917Z,25.5
2022-10-13T14:09:11.170Z,25.6
2022-10-13T14:10:13.371Z,25.6
2022-10-13T14:11:15.596Z,25.6
2022-10-13T14:12:18.383Z,25.6